This is the latest recevied weather packets stored in our database for station/object Riedlingn. If no packets are shown the sender has not sent any weather packets the latest 10 day(s).
| Time | Temp. | Humidity | Pressure | Rain* | Wind** | Luminosity | Snow |
|---|---|---|---|---|---|---|---|
| 1787794330 | 17.78° C | 88% | 1018 hPa | 0 mm | - | - | - |
| 1787792529 | 17.78° C | 87% | 1018.3 hPa | 0 mm | - | - | - |
| 1787790731 | 18.33° C | 86% | 1018.2 hPa | 0 mm | - | - | - |
| 1787788931 | 18.33° C | 85% | 1018.2 hPa | 0 mm | - | - | - |
| 1787787131 | 18.89° C | 83% | 1018.4 hPa | 0 mm | - | - | - |
| 1787785331 | 19.44° C | 82% | 1018.5 hPa | 0 mm | - | - | - |
| 1787783531 | 19.44° C | 80% | 1018.6 hPa | 0 mm | - | - | - |
| 1787781731 | 20° C | 78% | 1018.7 hPa | 0 mm | - | - | - |
| 1787779931 | 20.56° C | 77% | 1018.7 hPa | 0 mm | - | - | - |
| 1787778131 | 21.67° C | 75% | 1018.9 hPa | 0 mm | - | - | - |
| 1787776332 | 21.67° C | 74% | 1018.8 hPa | 0 mm | - | - | - |
| 1787774532 | 22.78° C | 72% | 1019.2 hPa | 0 mm | - | - | - |
| 1787772731 | 23.33° C | 69% | 1019.1 hPa | 0 mm | - | - | - |
| 1787770931 | 24.44° C | 66% | 1018.8 hPa | 0 mm | - | - | - |
| 1787769131 | 25.56° C | 62% | 1018.6 hPa | 0 mm | - | - | - |
| 1787767330 | 26.11° C | 59% | 1018.5 hPa | 0 mm | - | - | - |
| 1787765530 | 27.22° C | 54% | 1018.5 hPa | 0 mm | - | - | - |
| 1787763730 | 27.78° C | 50% | 1018.5 hPa | 0 mm | - | - | - |
| 1787761931 | 28.33° C | 51% | 1018.8 hPa | 0 mm | - | - | - |
| 1787760131 | 28.89° C | 49% | 1018.9 hPa | 0 mm | - | - | - |
| 1787758331 | 28.33° C | 49% | 1018.7 hPa | 0 mm | - | - | - |
| 1787756530 | 28.89° C | 48% | 1019.2 hPa | 0 mm | - | - | - |
| 1787754731 | 28.89° C | 49% | 1019.5 hPa | 0 mm | - | - | - |
| 1787752930 | 28.33° C | 50% | 1019.8 hPa | 0 mm | - | - | - |
| 1787751131 | 28.33° C | 52% | 1020 hPa | 0 mm | - | - | - |
* Rain since midnight (hover to see other rain measurements)
** Current wind speed in m/s (hover to see current wind gust speed)